Time;durP1;ratioP1;P1;durP2;ratioP2;P2;SDS_P1;SDS_P2;PMS_P1;PMS_P2;Temp;Humidity;BMP_temperature;BMP_pressure;BME280_temperature;BME280_humidity;BME280_pressure;Samples;Min_cycle;Max_cycle;Signal;HPM_P1;HPM_P2
2023/08/01 00:01:32;;;;;;;;;;;;;;;29.99;29.53;97515.50;5071605;28;19916;-89
2023/08/01 00:03:58;;;;;;;;;;;;;;;29.97;29.67;97521.63;5070368;28;19960;-89
2023/08/01 00:06:24;;;;;;;;;;;;;;;30.18;29.21;97519.69;5071368;28;19960;-89
2023/08/01 00:08:51;;;;;;;;;;;;;;;30.18;29.37;97510.44;5071603;28;19916;-89
2023/08/01 00:11:17;;;;;;;;;;;;;;;30.18;29.38;97511.19;5069991;28;20009;-88
2023/08/01 00:13:43;;;;;;;;;;;;;;;30.21;29.04;97513.03;5051275;28;19942;-89
2023/08/01 00:16:09;;;;;;;;;;;;;;;30.34;28.95;97499.38;5051434;28;19970;-89
2023/08/01 00:18:35;;;;;;;;;;;;;;;30.28;28.74;97497.69;5051438;28;20023;-89
2023/08/01 00:21:02;;;;;;;;;;;;;;;30.05;29.19;97491.69;5051301;28;19956;-89
2023/08/01 00:23:28;;;;;;;;;;;;;;;30.02;29.28;97494.69;5051244;28;19963;-89
2023/08/01 00:25:54;;;;;;;;;;;;;;;29.90;29.65;97490.88;5068352;28;20317;-89
2023/08/01 00:28:23;;;;;;;;;;;;;;;29.77;29.89;97486.78;5070375;28;19923;-89
2023/08/01 00:30:49;;;;;;;;;;;;;;;29.85;30.13;97480.25;5069959;27;20387;-89
2023/08/01 00:33:15;;;;;;;;;;;;;;;29.91;29.32;97474.69;5071027;28;19956;-89
2023/08/01 00:35:41;;;;;;;;;;;;;;;29.82;29.42;97469.13;5069754;27;20289;-90
2023/08/01 00:38:07;;;;;;;;;;;;;;;30.09;29.34;97475.25;5071170;28;20340;-89
2023/08/01 00:40:34;;;;;;;;;;;;;;;29.93;29.62;97470.09;5070675;28;19960;-89
2023/08/01 00:43:00;;;;;;;;;;;;;;;29.50;30.21;97472.88;5071415;28;19925;-89
2023/08/01 00:45:27;;;;;;;;;;;;;;;29.08;30.92;97462.50;5069073;28;19971;-89
2023/08/01 00:47:53;;;;;;;;;;;;;;;29.81;30.41;97459.84;5070862;28;19916;-89
2023/08/01 00:50:20;;;;;;;;;;;;;;;29.52;30.21;97454.16;5070773;28;19921;-89
2023/08/01 00:52:46;;;;;;;;;;;;;;;29.24;30.65;97453.59;5070766;28;20382;-89
2023/08/01 00:55:14;;;;;;;;;;;;;;;29.23;30.26;97442.78;5070578;28;19917;-89
2023/08/01 00:57:40;;;;;;;;;;;;;;;29.07;30.74;97444.00;5070706;28;19916;-89
2023/08/01 01:00:06;;;;;;;;;;;;;;;29.13;30.69;97439.22;5070729;28;20029;-89
2023/08/01 01:02:32;;;;;;;;;;;;;;;29.07;30.76;97427.03;5067719;28;19916;-89
2023/08/01 01:04:58;;;;;;;;;;;;;;;28.90;30.96;97425.91;5050584;28;19924;-89
2023/08/01 01:07:26;;;;;;;;;;;;;;;28.95;30.70;97413.94;5049411;28;19919;-89
2023/08/01 01:09:52;;;;;;;;;;;;;;;28.94;30.78;97417.25;5050362;28;19939;-90
2023/08/01 01:12:18;;;;;;;;;;;;;;;29.47;30.12;97418.06;5050661;28;20392;-89
2023/08/01 01:14:44;;;;;;;;;;;;;;;29.55;29.61;97415.59;5050154;28;19916;-89
2023/08/01 01:17:10;;;;;;;;;;;;;;;28.86;30.90;97410.41;5050624;28;19917;-89
2023/08/01 01:19:36;;;;;;;;;;;;;;;28.79;31.08;97407.94;5051009;28;19921;-89
2023/08/01 01:22:03;;;;;;;;;;;;;;;28.74;30.92;97398.09;5049128;28;19963;-89
2023/08/01 01:24:29;;;;;;;;;;;;;;;29.03;30.69;97394.56;5050101;28;19923;-90
2023/08/01 01:26:56;;;;;;;;;;;;;;;29.31;29.99;97388.19;5050379;28;20385;-89
2023/08/01 01:29:23;;;;;;;;;;;;;;;29.55;29.69;97392.97;5050292;28;19924;-89
2023/08/01 01:31:50;;;;;;;;;;;;;;;29.53;29.79;97382.16;5050344;28;20370;-90
2023/08/01 01:34:16;;;;;;;;;;;;;;;29.79;29.42;97379.53;5050379;28;19959;-90
2023/08/01 01:36:42;;;;;;;;;;;;;;;29.40;29.91;97384.50;5050875;28;19973;-89
2023/08/01 01:39:08;;;;;;;;;;;;;;;28.90;30.59;97372.22;5050142;28;19917;-90
2023/08/01 01:41:34;;;;;;;;;;;;;;;29.09;30.33;97376.44;5050179;28;19947;-90
2023/08/01 01:44:00;;;;;;;;;;;;;;;28.93;30.53;97365.59;5050069;28;19917;-90
2023/08/01 01:46:26;;;;;;;;;;;;;;;29.07;30.22;97355.56;5050069;28;20369;-90
2023/08/01 01:48:52;;;;;;;;;;;;;;;28.94;30.65;97355.09;5050016;28;20004;-90
2023/08/01 01:51:19;;;;;;;;;;;;;;;28.75;30.88;97354.47;5049754;28;19956;-89
2023/08/01 01:53:45;;;;;;;;;;;;;;;29.25;30.19;97347.72;5050464;28;19921;-89
2023/08/01 01:56:11;;;;;;;;;;;;;;;28.92;30.58;97340.63;5050025;28;19923;-90
2023/08/01 01:58:37;;;;;;;;;;;;;;;28.47;31.32;97336.13;5049977;28;19917;-90
2023/08/01 02:01:03;;;;;;;;;;;;;;;28.93;30.64;97331.69;5049994;28;19948;-90
2023/08/01 02:03:29;;;;;;;;;;;;;;;28.82;30.44;97337.13;5049784;28;20393;-90
2023/08/01 02:05:55;;;;;;;;;;;;;;;28.50;31.14;97333.09;5049665;28;19921;-90
2023/08/01 02:08:21;;;;;;;;;;;;;;;28.91;30.54;97333.44;5049934;28;19928;-90
2023/08/01 02:10:47;;;;;;;;;;;;;;;28.42;31.20;97333.97;5050086;28;19924;-89
2023/08/01 02:13:13;;;;;;;;;;;;;;;28.84;30.69;97317.63;5056653;28;19921;-90
2023/08/01 02:15:40;;;;;;;;;;;;;;;29.25;29.80;97316.63;5055915;28;20077;-90
2023/08/01 02:18:06;;;;;;;;;;;;;;;28.93;30.53;97317.56;5054681;28;19920;-90
2023/08/01 02:20:32;;;;;;;;;;;;;;;29.42;29.60;97312.03;5050617;28;19923;-90
2023/08/01 02:22:58;;;;;;;;;;;;;;;29.49;29.51;97313.69;5049638;28;19921;-90
2023/08/01 02:25:24;;;;;;;;;;;;;;;29.46;29.47;97317.50;5048438;28;19973;-89
2023/08/01 02:27:50;;;;;;;;;;;;;;;29.15;29.77;97311.53;5053319;28;19917;-89
2023/08/01 02:30:16;;;;;;;;;;;;;;;29.11;30.24;97314.53;5053118;28;19927;-89
2023/08/01 02:32:42;;;;;;;;;;;;;;;28.94;30.39;97304.22;5052953;28;20437;-90
2023/08/01 02:35:08;;;;;;;;;;;;;;;29.37;29.53;97309.09;5052880;28;19917;-90
2023/08/01 02:37:34;;;;;;;;;;;;;;;29.17;29.98;97306.94;5051737;28;20381;-90
2023/08/01 02:40:01;;;;;;;;;;;;;;;29.05;30.03;97296.72;5052851;28;19913;-89
2023/08/01 02:42:27;;;;;;;;;;;;;;;29.00;30.50;97303.03;5053277;28;20365;-89
2023/08/01 02:44:53;;;;;;;;;;;;;;;28.89;30.22;97299.22;5053889;28;20327;-89
2023/08/01 02:47:19;;;;;;;;;;;;;;;29.36;29.62;97297.00;5072684;28;19968;-89
2023/08/01 02:49:45;;;;;;;;;;;;;;;29.40;29.32;97297.63;5072549;28;19921;-90
2023/08/01 02:52:11;;;;;;;;;;;;;;;29.30;29.63;97295.38;5072771;28;20027;-89
2023/08/01 02:54:37;;;;;;;;;;;;;;;29.66;29.02;97297.78;5072596;28;20384;-89
2023/08/01 02:57:03;;;;;;;;;;;;;;;29.75;29.10;97291.22;5072623;28;19917;-90
2023/08/01 02:59:32;;;;;;;;;;;;;;;29.85;28.68;97282.13;5072528;28;19925;-90
2023/08/01 03:01:59;;;;;;;;;;;;;;;29.01;30.20;97284.81;5071437;28;19916;-89
2023/08/01 03:04:25;;;;;;;;;;;;;;;29.53;29.13;97283.16;5072296;28;19973;-89
2023/08/01 03:06:51;;;;;;;;;;;;;;;29.47;29.38;97276.63;5072430;28;19916;-90
2023/08/01 03:09:17;;;;;;;;;;;;;;;29.41;29.13;97284.22;5072528;28;19916;-90
2023/08/01 03:11:43;;;;;;;;;;;;;;;29.38;29.68;97274.66;5072332;28;19949;-89
2023/08/01 03:14:09;;;;;;;;;;;;;;;29.59;29.18;97280.41;5058638;28;19921;-90
2023/08/01 03:16:35;;;;;;;;;;;;;;;29.57;29.49;97266.75;5059158;28;19916;-90
2023/08/01 03:19:04;;;;;;;;;;;;;;;29.73;29.11;97269.06;5052431;28;20282;-89
2023/08/01 03:21:33;;;;;;;;;;;;;;;29.56;29.42;97265.19;5052402;28;20266;-90
2023/08/01 03:24:00;;;;;;;;;;;;;;;29.43;29.58;97274.00;5052160;28;19917;-90
2023/08/01 03:26:28;;;;;;;;;;;;;;;29.22;29.92;97272.34;5064418;28;19921;-89
2023/08/01 03:28:55;;;;;;;;;;;;;;;29.53;29.45;97265.38;5072385;27;19916;-90
2023/08/01 03:31:24;;;;;;;;;;;;;;;29.53;29.52;97260.50;5072100;28;19967;-90
2023/08/01 03:33:50;;;;;;;;;;;;;;;29.51;29.72;97267.94;5071923;28;20289;-89
2023/08/01 03:36:16;;;;;;;;;;;;;;;29.37;29.84;97266.69;5071116;28;19916;-89
2023/08/01 03:38:42;;;;;;;;;;;;;;;29.12;30.13;97267.28;5071903;28;19917;-89
2023/08/01 03:41:09;;;;;;;;;;;;;;;29.07;30.25;97260.25;5071821;28;19925;-89
2023/08/01 03:43:35;;;;;;;;;;;;;;;29.48;29.85;97266.09;5071824;28;19920;-89
2023/08/01 03:46:01;;;;;;;;;;;;;;;29.99;29.24;97260.72;5054937;27;19924;-90
2023/08/01 03:48:27;;;;;;;;;;;;;;;30.53;28.18;97259.09;5051577;28;19963;-90
2023/08/01 03:50:53;;;;;;;;;;;;;;;30.78;27.58;97247.78;5051635;28;20297;-90
2023/08/01 03:53:19;;;;;;;;;;;;;;;30.77;28.07;97239.78;5052704;28;19924;-90
2023/08/01 03:55:46;;;;;;;;;;;;;;;30.57;28.01;97237.75;5070434;28;19921;-90
2023/08/01 03:58:12;;;;;;;;;;;;;;;30.76;28.45;97233.31;5071729;28;19961;-90
2023/08/01 04:00:38;;;;;;;;;;;;;;;30.32;28.96;97232.81;5071621;28;19917;-89
2023/08/01 04:03:04;;;;;;;;;;;;;;;30.41;28.59;97238.34;5070058;27;19917;-90
2023/08/01 04:05:30;;;;;;;;;;;;;;;30.80;28.04;97241.63;5071448;28;19923;-89
2023/08/01 04:07:56;;;;;;;;;;;;;;;31.25;28.11;97240.00;5059506;28;19917;-89
2023/08/01 04:10:22;;;;;;;;;;;;;;;31.30;28.41;97237.19;5059809;28;20292;-89
2023/08/01 04:12:49;;;;;;;;;;;;;;;31.30;28.69;97236.41;5071236;28;19931;-89
2023/08/01 04:15:15;;;;;;;;;;;;;;;31.39;28.51;97224.91;5071480;28;19927;-90
2023/08/01 04:17:41;;;;;;;;;;;;;;;31.43;28.28;97228.31;5070906;28;19964;-89
2023/08/01 04:20:08;;;;;;;;;;;;;;;31.52;28.33;97230.16;5071387;28;19916;-89
2023/08/01 04:22:34;;;;;;;;;;;;;;;31.70;28.59;97233.38;5071258;28;20401;-89
2023/08/01 04:25:01;;;;;;;;;;;;;;;31.49;28.74;97231.16;5069993;27;19917;-90
2023/08/01 04:27:27;;;;;;;;;;;;;;;31.62;27.81;97229.47;5060322;28;20016;-90
2023/08/01 04:29:54;;;;;;;;;;;;;;;31.99;28.31;97237.97;5051119;28;20405;-90
2023/08/01 04:32:20;;;;;;;;;;;;;;;32.34;27.14;97226.25;5051044;28;20285;-90
2023/08/01 04:34:46;;;;;;;;;;;;;;;32.44;27.61;97221.91;5051070;28;19920;-90
2023/08/01 04:37:12;;;;;;;;;;;;;;;32.50;28.02;97228.41;5051175;28;19917;-90
2023/08/01 04:39:38;;;;;;;;;;;;;;;32.70;29.28;97228.19;5050988;28;19924;-90
2023/08/01 04:42:04;;;;;;;;;;;;;;;33.24;28.39;97215.34;5050723;28;20392;-90
2023/08/01 04:44:30;;;;;;;;;;;;;;;33.40;27.84;97203.19;5053245;27;19920;-90
2023/08/01 04:46:56;;;;;;;;;;;;;;;33.29;28.44;97203.19;5070707;28;20430;-90
2023/08/01 04:49:24;;;;;;;;;;;;;;;33.41;27.80;97201.13;5070182;28;19916;-90
2023/08/01 04:51:51;;;;;;;;;;;;;;;33.65;26.99;97201.38;5070882;28;19917;-90
2023/08/01 04:54:17;;;;;;;;;;;;;;;33.81;26.69;97200.56;5070822;28;20380;-90
2023/08/01 04:56:43;;;;;;;;;;;;;;;33.92;26.88;97208.28;5056200;28;19963;-90
2023/08/01 04:59:09;;;;;;;;;;;;;;;34.25;26.19;97207.41;5050876;28;20285;-90
2023/08/01 05:01:35;;;;;;;;;;;;;;;34.37;25.83;97203.22;5051190;28;19924;-90
2023/08/01 05:04:01;;;;;;;;;;;;;;;34.11;25.59;97209.28;5050630;28;19923;-90
2023/08/01 05:06:27;;;;;;;;;;;;;;;33.90;26.48;97191.72;5050811;28;19917;-90
2023/08/01 05:08:54;;;;;;;;;;;;;;;33.79;26.60;97193.84;5050736;28;20015;-90
2023/08/01 05:11:20;;;;;;;;;;;;;;;33.76;26.55;97192.03;5050459;28;20319;-90
2023/08/01 05:13:46;;;;;;;;;;;;;;;34.23;26.84;97193.72;5050521;28;19966;-90
2023/08/01 05:16:12;;;;;;;;;;;;;;;34.68;26.82;97197.88;5050257;28;19924;-90
2023/08/01 05:18:38;;;;;;;;;;;;;;;35.11;25.42;97189.56;5062399;27;19917;-90
2023/08/01 05:21:04;;;;;;;;;;;;;;;34.93;25.87;97187.34;5070510;28;19916;-90
2023/08/01 05:23:30;;;;;;;;;;;;;;;35.15;24.81;97184.34;5070591;27;20007;-91
2023/08/01 05:25:56;;;;;;;;;;;;;;;34.96;24.41;97182.66;5070371;28;20388;-90
2023/08/01 05:28:22;;;;;;;;;;;;;;;34.75;26.03;97188.00;5070331;28;19924;-90
2023/08/01 05:30:48;;;;;;;;;;;;;;;34.99;26.14;97187.28;5070186;28;19916;-90
2023/08/01 05:33:14;;;;;;;;;;;;;;;35.20;25.50;97179.88;5070287;28;19923;-90
2023/08/01 05:35:40;;;;;;;;;;;;;;;35.32;24.89;97187.84;5069591;27;19983;-91
2023/08/01 05:38:06;;;;;;;;;;;;;;;35.66;25.18;97187.53;5070281;28;19927;-90
2023/08/01 05:40:32;;;;;;;;;;;;;;;35.79;24.41;97185.59;5069007;27;19924;-90
2023/08/01 05:42:58;;;;;;;;;;;;;;;35.95;23.48;97187.47;5070561;28;19952;-91
2023/08/01 05:45:24;;;;;;;;;;;;;;;35.70;24.27;97188.00;5069926;28;19969;-91
2023/08/01 05:47:50;;;;;;;;;;;;;;;35.41;24.30;97187.50;5070124;28;19916;-90
2023/08/01 05:50:16;;;;;;;;;;;;;;;35.52;24.82;97183.81;5070021;28;19921;-90
2023/08/01 05:52:42;;;;;;;;;;;;;;;35.60;24.85;97189.66;5069094;28;19944;-90
2023/08/01 05:55:08;;;;;;;;;;;;;;;35.49;24.70;97181.19;5068537;28;19916;-90
2023/08/01 05:57:34;;;;;;;;;;;;;;;35.50;25.60;97177.03;5050130;28;19928;-90
2023/08/01 06:00:00;;;;;;;;;;;;;;;35.21;24.19;97182.22;5049846;28;20016;-90
2023/08/01 06:02:27;;;;;;;;;;;;;;;35.16;25.17;97174.47;5052664;28;19917;-90
2023/08/01 06:04:53;;;;;;;;;;;;;;;35.05;25.84;97176.66;5062106;28;19917;-90
2023/08/01 06:07:22;;;;;;;;;;;;;;;34.80;26.33;97172.16;5073433;28;19924;-89
2023/08/01 06:09:51;;;;;;;;;;;;;;;35.23;25.26;97178.84;5072647;28;19916;-90
2023/08/01 06:12:17;;;;;;;;;;;;;;;35.14;24.94;97176.31;5073058;28;19983;-90
2023/08/01 06:14:43;;;;;;;;;;;;;;;35.25;25.17;97184.78;5073285;28;19917;-90
2023/08/01 06:17:09;;;;;;;;;;;;;;;35.36;25.13;97178.97;5073310;28;19924;-90
2023/08/01 06:19:35;;;;;;;;;;;;;;;35.53;24.58;97178.84;5073235;28;20296;-90
2023/08/01 06:22:01;;;;;;;;;;;;;;;35.48;24.64;97179.63;5073310;28;19917;-90
2023/08/01 06:24:27;;;;;;;;;;;;;;;35.67;24.33;97178.44;5073194;28;19917;-90
2023/08/01 06:26:53;;;;;;;;;;;;;;;35.63;24.69;97174.31;5072377;28;19924;-89
2023/08/01 06:29:19;;;;;;;;;;;;;;;35.67;24.52;97174.78;5074763;28;20258;-89
2023/08/01 06:31:45;;;;;;;;;;;;;;;35.55;25.55;97177.00;5074511;28;19972;-89
2023/08/01 06:34:11;;;;;;;;;;;;;;;35.69;25.81;97180.75;5074245;28;19916;-89
2023/08/01 06:36:37;;;;;;;;;;;;;;;35.87;25.88;97182.91;5073409;28;19917;-90
2023/08/01 06:39:03;;;;;;;;;;;;;;;35.74;25.43;97189.25;5073126;28;19970;-89
2023/08/01 06:41:30;;;;;;;;;;;;;;;35.98;25.23;97179.94;5071375;27;19924;-89
2023/08/01 06:43:56;;;;;;;;;;;;;;;36.04;25.45;97174.91;5072178;28;19924;-91
2023/08/01 06:46:22;;;;;;;;;;;;;;;36.01;24.61;97171.06;5073168;27;19952;-90
2023/08/01 06:48:48;;;;;;;;;;;;;;;35.68;24.42;97167.78;5072828;28;19961;-90
2023/08/01 06:51:14;;;;;;;;;;;;;;;35.52;25.56;97166.66;5072953;27;19916;-90
2023/08/01 06:53:40;;;;;;;;;;;;;;;35.42;25.31;97163.34;5072794;28;19917;-89
2023/08/01 06:56:06;;;;;;;;;;;;;;;35.29;25.30;97153.84;5072373;28;19928;-89
2023/08/01 06:58:32;;;;;;;;;;;;;;;35.12;25.57;97165.44;5072620;28;19918;-89
2023/08/01 07:00:58;;;;;;;;;;;;;;;35.06;26.64;97161.84;5057665;28;19921;-89
2023/08/01 07:03:24;;;;;;;;;;;;;;;35.22;25.95;97158.06;5052812;28;19917;-89
2023/08/01 07:05:50;;;;;;;;;;;;;;;35.57;27.19;97160.09;5071921;28;20300;-89
2023/08/01 07:08:16;;;;;;;;;;;;;;;35.89;24.79;97163.13;5072561;28;20450;-89
2023/08/01 07:10:42;;;;;;;;;;;;;;;35.91;24.64;97157.66;5070993;27;20421;-89
2023/08/01 07:13:08;;;;;;;;;;;;;;;35.64;24.65;97148.06;5071996;28;19924;-89
2023/08/01 07:15:34;;;;;;;;;;;;;;;35.56;25.54;97149.22;5072601;27;19917;-89
2023/08/01 07:18:00;;;;;;;;;;;;;;;35.67;25.39;97149.88;5057095;28;19917;-89
2023/08/01 07:20:26;;;;;;;;;;;;;;;35.61;25.58;97151.25;5052405;28;20289;-89
2023/08/01 07:22:52;;;;;;;;;;;;;;;35.20;25.91;97148.50;5050784;28;19917;-89
2023/08/01 07:25:19;;;;;;;;;;;;;;;35.29;25.69;97148.94;5052206;28;20019;-89
2023/08/01 07:27:46;;;;;;;;;;;;;;;35.49;25.77;97149.78;5052285;28;19944;-89
2023/08/01 07:30:12;;;;;;;;;;;;;;;35.13;26.13;97143.38;5052126;28;19917;-89
2023/08/01 07:32:38;;;;;;;;;;;;;;;35.10;27.48;97145.19;5050752;28;19913;-89
2023/08/01 07:35:05;;;;;;;;;;;;;;;35.59;26.69;97148.16;5052633;28;19917;-89
2023/08/01 07:37:34;;;;;;;;;;;;;;;35.78;26.55;97143.28;5051981;28;19924;-89
2023/08/01 07:40:00;;;;;;;;;;;;;;;35.74;26.55;97140.69;5051753;28;20011;-89
2023/08/01 07:42:26;;;;;;;;;;;;;;;35.60;26.07;97139.03;5051750;28;19924;-89
2023/08/01 07:44:52;;;;;;;;;;;;;;;35.27;26.26;97137.28;5052076;28;19928;-89
2023/08/01 07:47:18;;;;;;;;;;;;;;;35.19;26.69;97126.97;5052061;28;20402;-89
2023/08/01 07:49:44;;;;;;;;;;;;;;;35.25;26.22;97127.69;5051830;28;20015;-89
2023/08/01 07:52:10;;;;;;;;;;;;;;;35.33;26.20;97134.38;5052233;28;19917;-89
2023/08/01 07:54:36;;;;;;;;;;;;;;;35.43;26.26;97122.06;5051517;28;19924;-89
2023/08/01 07:57:03;;;;;;;;;;;;;;;35.24;26.71;97120.44;5068749;28;20453;-89
2023/08/01 07:59:29;;;;;;;;;;;;;;;35.15;27.12;97112.25;5072072;27;19921;-89
2023/08/01 08:01:55;;;;;;;;;;;;;;;35.29;26.51;97116.75;5070268;27;19984;-89
2023/08/01 08:04:21;;;;;;;;;;;;;;;35.28;27.12;97106.66;5071438;28;19917;-89
2023/08/01 08:06:47;;;;;;;;;;;;;;;35.08;27.28;97104.25;5071694;28;19972;-89
2023/08/01 08:09:13;;;;;;;;;;;;;;;35.25;27.30;97110.56;5070607;28;19917;-89
2023/08/01 08:11:39;;;;;;;;;;;;;;;35.39;26.55;97106.53;5071367;28;19924;-89
2023/08/01 08:14:05;;;;;;;;;;;;;;;35.04;27.59;97110.25;5071606;28;20317;-89
2023/08/01 08:16:31;;;;;;;;;;;;;;;35.08;28.25;97099.31;5072451;27;19912;-89
2023/08/01 08:18:57;;;;;;;;;;;;;;;35.24;27.90;97104.06;5071443;28;19916;-89
2023/08/01 08:21:23;;;;;;;;;;;;;;;35.47;27.26;97098.94;5071635;28;19912;-89
2023/08/01 08:23:49;;;;;;;;;;;;;;;35.77;27.74;97102.50;5070028;28;19925;-89
2023/08/01 08:26:15;;;;;;;;;;;;;;;36.06;27.50;97097.97;5070495;28;20065;-89
2023/08/01 08:28:42;;;;;;;;;;;;;;;36.14;25.98;97092.44;5071254;28;20096;-89
2023/08/01 08:31:08;;;;;;;;;;;;;;;36.09;26.33;97088.34;5072431;28;20007;-89
2023/08/01 08:33:34;;;;;;;;;;;;;;;36.44;26.65;97093.03;5069903;28;20270;-89
2023/08/01 08:36:00;;;;;;;;;;;;;;;36.57;25.74;97090.28;5071244;28;20353;-89
2023/08/01 08:38:28;;;;;;;;;;;;;;;36.59;25.51;97094.13;5071166;27;19916;-89
2023/08/01 08:40:54;;;;;;;;;;;;;;;36.43;26.37;97092.25;5069786;27;19969;-89
2023/08/01 08:43:21;;;;;;;;;;;;;;;36.16;25.75;97095.53;5063879;28;19925;-89
2023/08/01 08:45:48;;;;;;;;;;;;;;;36.07;26.67;97093.81;5054816;28;20281;-89
2023/08/01 08:48:17;;;;;;;;;;;;;;;36.09;26.19;97088.34;5067543;28;19916;-89
2023/08/01 08:50:45;;;;;;;;;;;;;;;35.54;26.20;97092.66;5070882;28;20433;-88
2023/08/01 08:53:12;;;;;;;;;;;;;;;35.17;26.89;97092.50;5070785;28;19917;-89
2023/08/01 08:55:39;;;;;;;;;;;;;;;35.12;27.08;97090.47;5070598;27;20362;-88
2023/08/01 08:58:05;;;;;;;;;;;;;;;35.42;27.25;97083.41;5070902;28;19916;-89
2023/08/01 09:00:31;;;;;;;;;;;;;;;35.54;27.26;97089.78;5063850;28;19943;-89
2023/08/01 09:02:57;;;;;;;;;;;;;;;35.66;26.67;97087.56;5050707;28;19921;-89
2023/08/01 09:05:26;;;;;;;;;;;;;;;35.59;26.44;97088.19;5050554;28;19968;-89
2023/08/01 09:07:54;;;;;;;;;;;;;;;35.70;27.67;97093.75;5050564;28;19916;-89
2023/08/01 09:10:20;;;;;;;;;;;;;;;35.91;27.13;97083.38;5050729;28;20407;-89
2023/08/01 09:12:47;;;;;;;;;;;;;;;35.78;26.88;97089.75;5050370;28;20015;-90
2023/08/01 09:15:13;;;;;;;;;;;;;;;35.73;27.40;97078.41;5051091;28;20305;-89
2023/08/01 09:17:52;;;;;;;;;;;;;;;35.98;28.05;97077.84;5050520;28;20412;-89
2023/08/01 09:20:18;;;;;;;;;;;;;;;35.88;26.52;97073.00;5050774;28;19916;-89
2023/08/01 09:22:45;;;;;;;;;;;;;;;36.04;26.81;97063.47;5050242;28;19924;-89
2023/08/01 09:25:11;;;;;;;;;;;;;;;36.33;26.59;97053.19;5050554;28;19923;-89
2023/08/01 09:27:37;;;;;;;;;;;;;;;36.27;27.43;97058.97;5049244;28;20011;-89
2023/08/01 09:30:11;;;;;;;;;;;;;;;36.40;27.28;97056.19;5050447;28;19917;-89
2023/08/01 09:32:37;;;;;;;;;;;;;;;36.60;26.80;97058.47;5051119;28;19968;-89
2023/08/01 09:35:03;;;;;;;;;;;;;;;36.42;27.45;97053.56;5050988;28;20322;-89
2023/08/01 09:37:39;;;;;;;;;;;;;;;36.32;27.99;97060.19;5053734;28;20012;-89
2023/08/01 09:40:06;;;;;;;;;;;;;;;36.01;28.85;97056.75;5054014;28;19960;-89
2023/08/01 09:42:42;;;;;;;;;;;;;;;35.71;28.53;97046.75;5053599;28;20011;-89
2023/08/01 09:45:13;;;;;;;;;;;;;;;35.50;28.87;97060.75;5053742;28;19921;-90
2023/08/01 09:47:39;;;;;;;;;;;;;;;35.35;29.01;97061.16;5054020;28;20305;-89
2023/08/01 09:50:06;;;;;;;;;;;;;;;35.02;29.54;97057.88;5053972;28;20020;-89
2023/08/01 09:52:32;;;;;;;;;;;;;;;35.02;28.90;97057.88;5053783;28;19917;-89
2023/08/01 09:54:58;;;;;;;;;;;;;;;35.08;29.33;97055.75;5053653;28;19917;-89
2023/08/01 09:57:28;;;;;;;;;;;;;;;34.80;29.63;97061.66;5073635;28;19917;-89
2023/08/01 09:59:55;;;;;;;;;;;;;;;34.80;29.11;97055.97;5072294;27;20284;-89
2023/08/01 10:02:23;;;;;;;;;;;;;;;34.45;29.62;97056.75;5073517;28;19916;-89
2023/08/01 10:04:50;;;;;;;;;;;;;;;34.73;29.34;97054.47;5073314;28;20415;-89
2023/08/01 10:07:20;;;;;;;;;;;;;;;35.01;29.18;97062.03;5063116;27;19924;-89
2023/08/01 10:09:47;;;;;;;;;;;;;;;35.05;28.41;97065.38;5053578;28;19928;-89
2023/08/01 10:12:17;;;;;;;;;;;;;;;35.17;28.91;97061.09;5058351;28;19947;-89
2023/08/01 10:14:43;;;;;;;;;;;;;;;35.31;28.74;97065.63;5073322;28;19955;-89
2023/08/01 10:17:11;;;;;;;;;;;;;;;35.27;29.40;97056.56;5073270;28;19917;-89
2023/08/01 10:19:37;;;;;;;;;;;;;;;35.21;29.28;97053.00;5073099;28;19948;-89
2023/08/01 10:22:05;;;;;;;;;;;;;;;35.27;30.31;97053.72;5073275;28;19916;-89
2023/08/01 10:24:32;;;;;;;;;;;;;;;35.36;29.74;97050.50;5061716;28;20331;-89
2023/08/01 10:27:08;;;;;;;;;;;;;;;35.75;28.85;97041.50;5053253;28;19945;-89
2023/08/01 10:29:35;;;;;;;;;;;;;;;35.52;29.49;97041.00;5053128;28;20279;-89
2023/08/01 10:32:02;;;;;;;;;;;;;;;35.36;29.94;97045.56;5053133;28;19916;-89
2023/08/01 10:34:28;;;;;;;;;;;;;;;35.27;29.92;97051.63;5052928;28;19916;-90
2023/08/01 10:36:57;;;;;;;;;;;;;;;35.36;29.57;97039.84;5053007;28;20424;-90
2023/08/01 10:39:24;;;;;;;;;;;;;;;35.62;29.53;97042.16;5053266;28;19982;-90
2023/08/01 10:42:00;;;;;;;;;;;;;;;35.66;29.40;97045.47;5066355;28;20368;-89
2023/08/01 10:44:27;;;;;;;;;;;;;;;35.64;30.22;97059.53;5072855;28;20330;-90
2023/08/01 10:46:53;;;;;;;;;;;;;;;35.50;30.29;97059.97;5072875;28;19917;-90
2023/08/01 10:49:20;;;;;;;;;;;;;;;35.44;30.72;97065.72;5072957;28;20460;-90
2023/08/01 10:51:46;;;;;;;;;;;;;;;35.60;30.97;97073.34;5073276;28;20388;-91
2023/08/01 10:54:19;;;;;;;;;;;;;;;35.43;30.75;97070.66;5073038;28;19916;-91
2023/08/01 10:56:46;;;;;;;;;;;;;;;34.98;31.57;97063.84;5072853;27;19917;-91
2023/08/01 10:59:13;;;;;;;;;;;;;;;34.68;31.62;97061.00;5055194;28;19939;-91
2023/08/01 11:01:46;;;;;;;;;;;;;;;34.84;31.27;97064.25;5052814;28;19967;-92
2023/08/01 11:04:19;;;;;;;;;;;;;;;34.96;31.51;97063.59;5052325;28;19947;-91
2023/08/01 11:06:48;;;;;;;;;;;;;;;34.89;32.18;97071.97;5052812;28;19917;-92
2023/08/01 11:09:18;;;;;;;;;;;;;;;34.95;32.54;97067.75;5052651;28;19924;-92
2023/08/01 11:11:45;;;;;;;;;;;;;;;34.84;32.95;97067.88;5052312;28;20334;-91
2023/08/01 11:14:12;;;;;;;;;;;;;;;34.72;33.10;97058.66;5051427;28;19917;-92
2023/08/01 11:16:38;;;;;;;;;;;;;;;34.88;31.78;97071.19;5052706;27;20315;-92
2023/08/01 11:19:04;;;;;;;;;;;;;;;34.93;32.37;97066.75;5052092;28;19917;-91
2023/08/01 11:21:30;;;;;;;;;;;;;;;34.78;33.03;97072.06;5051098;28;19919;-91
2023/08/01 11:23:56;;;;;;;;;;;;;;;34.64;33.05;97071.91;5052374;28;20370;-91
2023/08/01 11:26:22;;;;;;;;;;;;;;;34.33;34.18;97065.91;5052296;28;19917;-91
2023/08/01 11:28:48;;;;;;;;;;;;;;;34.00;34.41;97067.63;5052220;28;19917;-91
2023/08/01 11:31:14;;;;;;;;;;;;;;;34.20;34.48;97066.50;5052399;28;20314;-90
2023/08/01 11:33:40;;;;;;;;;;;;;;;34.63;33.35;97061.06;5052102;28;19917;-90
2023/08/01 11:36:07;;;;;;;;;;;;;;;34.55;33.30;97051.50;5052297;28;20019;-90
2023/08/01 11:38:34;;;;;;;;;;;;;;;34.33;33.94;97057.38;5052384;28;19917;-91
2023/08/01 11:41:01;;;;;;;;;;;;;;;34.15;34.44;97053.06;5051879;28;19925;-90
2023/08/01 11:43:37;;;;;;;;;;;;;;;34.24;34.35;97058.44;5052000;28;19917;-91
2023/08/01 11:46:03;;;;;;;;;;;;;;;34.41;34.08;97059.13;5051774;28;20031;-90
2023/08/01 11:48:29;;;;;;;;;;;;;;;34.39;34.06;97058.88;5052508;28;19971;-90
2023/08/01 11:50:59;;;;;;;;;;;;;;;34.36;34.36;97059.13;5051907;28;20254;-90
2023/08/01 11:53:25;;;;;;;;;;;;;;;34.50;34.28;97060.84;5051887;28;19944;-90
2023/08/01 11:55:52;;;;;;;;;;;;;;;34.38;34.14;97062.25;5051801;28;19916;-90
2023/08/01 11:58:31;;;;;;;;;;;;;;;34.61;33.89;97070.13;5051910;28;20337;-90
2023/08/01 12:01:03;;;;;;;;;;;;;;;34.80;33.71;97078.78;5051610;28;19940;-89
2023/08/01 12:03:29;;;;;;;;;;;;;;;34.89;33.39;97080.53;5051689;28;19948;-90
2023/08/01 12:06:08;;;;;;;;;;;;;;;34.69;33.64;97085.38;5052255;28;19941;-89
2023/08/01 12:08:34;;;;;;;;;;;;;;;34.82;33.69;97089.69;5051618;28;19920;-89
2023/08/01 12:11:00;;;;;;;;;;;;;;;34.59;33.83;97086.22;5051565;28;19932;-89
2023/08/01 12:13:26;;;;;;;;;;;;;;;34.52;32.58;97087.56;5051325;28;19925;-88
2023/08/01 12:15:53;;;;;;;;;;;;;;;34.52;33.15;97075.34;5050116;28;19956;-88
2023/08/01 12:18:21;;;;;;;;;;;;;;;34.43;32.60;97076.47;5051671;28;19981;-88
2023/08/01 12:20:47;;;;;;;;;;;;;;;34.17;32.43;97067.56;5051667;28;19916;-88
2023/08/01 12:23:13;;;;;;;;;;;;;;;34.03;32.67;97065.81;5052173;28;19916;-89
2023/08/01 12:25:39;;;;;;;;;;;;;;;34.15;31.99;97066.53;5051286;28;20358;-88
2023/08/01 12:28:05;;;;;;;;;;;;;;;34.04;32.16;97073.88;5051491;28;19916;-88
2023/08/01 12:30:31;;;;;;;;;;;;;;;33.96;32.32;97072.84;5051030;28;19916;-87
2023/08/01 12:32:57;;;;;;;;;;;;;;;34.01;32.40;97077.72;5049963;28;20370;-88
2023/08/01 12:35:23;;;;;;;;;;;;;;;34.02;31.83;97064.25;5049950;28;19917;-87
2023/08/01 12:37:51;;;;;;;;;;;;;;;33.92;32.41;97071.56;5051421;28;19952;-87
2023/08/01 12:40:17;;;;;;;;;;;;;;;33.93;31.97;97068.22;5059926;28;20284;-87
2023/08/01 12:42:43;;;;;;;;;;;;;;;33.62;32.38;97071.44;5070889;28;19931;-87
2023/08/01 12:45:10;;;;;;;;;;;;;;;33.15;33.46;97072.59;5070713;27;19916;-86